Time,TemperatureF,DewpointF,PressureIn,WindDirection,WindDirectionDegrees,WindSpeedMPH,WindSpeedGustMPH,Humidity,HourlyPrecipIn,Conditions,Clouds,dailyrainin,SolarRadiationWatts/m^2,SoftwareType,DateUTC
2013-06-23 00:02:00,49.0,18.0,-100.00,West,266,0.0,1.0,29,0.00,,,0.00,0.000000,,2013-06-23 07:02:00,
2013-06-23 00:43:00,48.0,19.0,-100.00,SW,225,0.0,1.0,31,0.00,,,0.00,0.000000,,2013-06-23 07:43:00,
2013-06-23 00:53:00,48.0,19.0,-100.00,SW,225,0.0,1.0,31,0.00,,,0.00,0.000000,,2013-06-23 07:53:00,
2013-06-23 01:02:00,48.0,19.0,-100.00,SW,225,0.0,1.0,31,0.00,,,0.00,0.000000,,2013-06-23 08:02:00,
2013-06-23 01:11:00,48.0,19.0,-100.00,SW,225,0.0,1.0,31,0.00,,,0.00,0.000000,,2013-06-23 08:11:00,
2013-06-23 01:12:00,45.0,19.0,-100.00,SW,229,0.0,1.0,35,0.00,,,-99.99,0.000000,,2013-06-23 08:12:00,
2013-06-23 01:43:00,45.0,19.0,-100.00,SW,229,0.0,1.0,35,0.00,,,-99.99,0.000000,,2013-06-23 08:43:00,
2013-06-23 01:53:00,45.0,19.0,-100.00,SW,229,0.0,1.0,35,0.00,,,-99.99,0.000000,,2013-06-23 08:53:00,
2013-06-23 02:02:00,45.0,19.0,-100.00,SW,229,0.0,1.0,35,0.00,,,-99.99,0.000000,,2013-06-23 09:02:00,
2013-06-23 02:43:00,48.0,18.0,-100.00,West,265,0.0,2.0,30,0.00,,,0.00,0.000000,,2013-06-23 09:43:00,
2013-06-23 02:54:00,48.0,18.0,-100.00,West,265,0.0,2.0,30,0.00,,,0.00,0.000000,,2013-06-23 09:54:00,
2013-06-23 03:02:00,48.0,18.0,-100.00,West,265,0.0,2.0,30,0.00,,,0.00,0.000000,,2013-06-23 10:02:00,
2013-06-23 03:11:00,48.0,18.0,-100.00,West,265,0.0,2.0,30,0.00,,,0.00,0.000000,,2013-06-23 10:11:00,
2013-06-23 03:43:00,46.0,19.0,-100.00,SSW,201,0.0,2.0,33,0.00,,,0.00,0.000000,,2013-06-23 10:43:00,
2013-06-23 03:53:00,46.0,19.0,-100.00,SSW,201,0.0,2.0,33,0.00,,,0.00,0.000000,,2013-06-23 10:53:00,
2013-06-23 04:01:00,46.0,19.0,-100.00,SSW,201,0.0,2.0,33,0.00,,,0.00,0.000000,,2013-06-23 11:01:00,
2013-06-23 04:11:00,46.0,19.0,-100.00,SSW,201,0.0,2.0,33,0.00,,,0.00,0.000000,,2013-06-23 11:11:00,
2013-06-23 04:33:00,45.0,18.0,-100.00,South,188,0.0,2.0,34,0.00,,,0.00,0.000000,,2013-06-23 11:33:00,
2013-06-23 04:43:00,45.0,18.0,-100.00,South,188,0.0,2.0,34,0.00,,,0.00,0.000000,,2013-06-23 11:43:00,
2013-06-23 04:53:00,45.0,18.0,-100.00,South,188,0.0,2.0,34,0.00,,,0.00,0.000000,,2013-06-23 11:53:00,
2013-06-23 05:01:00,45.0,18.0,-100.00,South,188,0.0,2.0,34,0.00,,,0.00,0.000000,,2013-06-23 12:01:00,
2013-06-23 05:11:00,45.0,18.0,-100.00,South,188,0.0,2.0,34,0.00,,,0.00,0.000000,,2013-06-23 12:11:00,
2013-06-23 05:43:00,44.0,17.0,-100.00,SSW,210,0.0,1.0,34,0.00,,,0.00,0.000000,,2013-06-23 12:43:00,
2013-06-23 05:53:00,44.0,17.0,-100.00,SSW,210,0.0,1.0,34,0.00,,,0.00,0.000000,,2013-06-23 12:53:00,
2013-06-23 06:01:00,44.0,17.0,-100.00,SSW,210,0.0,1.0,34,0.00,,,0.00,0.000000,,2013-06-23 13:01:00,
2013-06-23 06:11:00,44.0,17.0,-100.00,SSW,210,0.0,1.0,34,0.00,,,0.00,0.000000,,2013-06-23 13:11:00,
2013-06-23 06:43:00,51.0,21.0,-100.00,NNW,341,0.0,2.0,31,0.00,,,0.00,40.000000,,2013-06-23 13:43:00,
2013-06-23 06:54:00,51.0,21.0,-100.00,NNW,341,0.0,2.0,31,0.00,,,0.00,40.000000,,2013-06-23 13:54:00,
2013-06-23 09:05:00,59.0,21.0,-100.00,ENE,64,0.0,2.0,23,-99.99,,,0.00,523.000000,,2013-06-23 16:05:00,
2013-06-23 09:11:00,59.0,21.0,-100.00,ENE,64,0.0,2.0,23,-99.99,,,0.00,523.000000,,2013-06-23 16:11:00,
2013-06-23 09:36:00,61.0,23.0,-100.00,East,84,0.0,2.0,23,0.00,,,0.00,605.000000,,2013-06-23 16:36:00,
2013-06-23 09:43:00,61.0,23.0,-100.00,East,84,0.0,2.0,23,0.00,,,0.00,605.000000,,2013-06-23 16:43:00,
2013-06-23 09:53:00,61.0,23.0,-100.00,East,84,0.0,2.0,23,0.00,,,0.00,605.000000,,2013-06-23 16:53:00,
2013-06-23 10:03:00,61.0,23.0,-100.00,East,84,0.0,2.0,23,0.00,,,0.00,605.000000,,2013-06-23 17:03:00,
2013-06-23 10:11:00,61.0,23.0,-100.00,East,84,0.0,2.0,23,0.00,,,0.00,605.000000,,2013-06-23 17:11:00,
2013-06-23 10:34:00,66.0,24.0,-100.00,East,92,0.0,2.0,20,0.00,,,0.00,885.000000,,2013-06-23 17:34:00,
2013-06-23 10:43:00,66.0,24.0,-100.00,East,92,0.0,2.0,20,0.00,,,0.00,885.000000,,2013-06-23 17:43:00,
2013-06-23 10:53:00,66.0,24.0,-100.00,East,92,0.0,2.0,20,0.00,,,0.00,885.000000,,2013-06-23 17:53:00,
2013-06-23 11:01:00,66.0,24.0,-100.00,East,92,0.0,2.0,20,0.00,,,0.00,885.000000,,2013-06-23 18:01:00,
2013-06-23 11:11:00,66.0,24.0,-100.00,East,92,0.0,2.0,20,0.00,,,0.00,885.000000,,2013-06-23 18:11:00,
2013-06-23 11:34:00,65.0,22.0,-100.00,East,85,1.0,2.0,19,0.00,,,0.00,681.000000,,2013-06-23 18:34:00,
2013-06-23 11:43:00,65.0,22.0,-100.00,East,85,1.0,2.0,19,0.00,,,0.00,681.000000,,2013-06-23 18:43:00,
2013-06-23 11:53:00,65.0,22.0,-100.00,East,85,1.0,2.0,19,0.00,,,0.00,681.000000,,2013-06-23 18:53:00,
2013-06-23 12:01:00,65.0,22.0,-100.00,East,85,1.0,2.0,19,0.00,,,0.00,681.000000,,2013-06-23 19:01:00,
2013-06-23 12:11:00,65.0,22.0,-100.00,East,85,1.0,2.0,19,0.00,,,0.00,681.000000,,2013-06-23 19:11:00,
2013-06-23 12:43:00,70.0,23.0,-100.00,East,83,1.0,2.0,17,0.00,,,0.00,910.000000,,2013-06-23 19:43:00,
2013-06-23 12:53:00,70.0,23.0,-100.00,East,83,1.0,2.0,17,0.00,,,0.00,910.000000,,2013-06-23 19:53:00,
2013-06-23 13:01:00,70.0,23.0,-100.00,East,83,1.0,2.0,17,0.00,,,0.00,910.000000,,2013-06-23 20:01:00,
2013-06-23 13:11:00,70.0,23.0,-100.00,East,83,1.0,2.0,17,0.00,,,0.00,910.000000,,2013-06-23 20:11:00,
2013-06-23 13:42:00,71.0,21.0,-100.00,ESE,107,1.0,4.0,15,0.00,,,0.00,826.000000,,2013-06-23 20:42:00,
2013-06-23 13:53:00,71.0,21.0,-100.00,ESE,107,1.0,4.0,15,0.00,,,0.00,826.000000,,2013-06-23 20:53:00,
2013-06-23 14:01:00,71.0,21.0,-100.00,ESE,107,1.0,4.0,15,0.00,,,0.00,826.000000,,2013-06-23 21:01:00,
2013-06-23 14:11:00,71.0,21.0,-100.00,ESE,107,1.0,4.0,15,0.00,,,0.00,826.000000,,2013-06-23 21:11:00,
2013-06-23 14:44:00,67.0,19.0,-100.00,ESE,113,1.0,3.0,16,0.00,,,0.00,522.000000,,2013-06-23 21:44:00,
2013-06-23 14:52:00,67.0,19.0,-100.00,ESE,113,1.0,3.0,16,0.00,,,0.00,522.000000,,2013-06-23 21:52:00,
2013-06-23 15:01:00,67.0,19.0,-100.00,ESE,113,1.0,3.0,16,0.00,,,0.00,522.000000,,2013-06-23 22:01:00,
2013-06-23 15:11:00,67.0,19.0,-100.00,ESE,113,1.0,3.0,16,0.00,,,0.00,522.000000,,2013-06-23 22:11:00,
2013-06-23 15:32:00,67.0,18.0,-100.00,SE,124,1.0,4.0,15,0.00,,,0.00,273.000000,,2013-06-23 22:32:00,
2013-06-23 15:43:00,67.0,18.0,-100.00,SE,124,1.0,4.0,15,0.00,,,0.00,273.000000,,2013-06-23 22:43:00,
2013-06-23 15:53:00,67.0,18.0,-100.00,SE,124,1.0,4.0,15,0.00,,,0.00,273.000000,,2013-06-23 22:53:00,
2013-06-23 16:01:00,67.0,18.0,-100.00,SE,124,1.0,4.0,15,0.00,,,0.00,273.000000,,2013-06-23 23:01:00,
2013-06-23 16:11:00,67.0,18.0,-100.00,SE,124,1.0,4.0,15,0.00,,,0.00,273.000000,,2013-06-23 23:11:00,
2013-06-23 16:44:00,67.0,16.0,-100.00,ESE,105,0.0,2.0,14,0.00,,,0.00,198.000000,,2013-06-23 23:44:00,
2013-06-23 16:52:00,67.0,16.0,-100.00,ESE,105,0.0,2.0,14,0.00,,,0.00,198.000000,,2013-06-23 23:52:00,
2013-06-23 17:01:00,67.0,16.0,-100.00,ESE,105,0.0,2.0,14,0.00,,,0.00,198.000000,,2013-06-24 00:01:00,
2013-06-23 17:11:00,67.0,16.0,-100.00,ESE,105,0.0,2.0,14,0.00,,,0.00,198.000000,,2013-06-24 00:11:00,
2013-06-23 17:42:00,65.0,16.0,-100.00,SE,138,0.0,4.0,15,0.00,,,-99.99,144.000000,,2013-06-24 00:42:00,
2013-06-23 17:52:00,65.0,16.0,-100.00,SE,138,0.0,4.0,15,0.00,,,-99.99,144.000000,,2013-06-24 00:52:00,
2013-06-23 18:01:00,65.0,16.0,-100.00,SE,138,0.0,4.0,15,0.00,,,-99.99,144.000000,,2013-06-24 01:01:00,
2013-06-23 18:11:00,65.0,16.0,-100.00,SE,138,0.0,4.0,15,0.00,,,-99.99,144.000000,,2013-06-24 01:11:00,
2013-06-23 18:32:00,65.0,16.0,-100.00,SSE,151,0.0,0.0,15,0.00,,,0.00,85.000000,,2013-06-24 01:32:00,
2013-06-23 18:42:00,65.0,16.0,-100.00,SSE,151,0.0,0.0,15,0.00,,,0.00,85.000000,,2013-06-24 01:42:00,
2013-06-23 18:53:00,65.0,16.0,-100.00,SSE,151,0.0,0.0,15,0.00,,,0.00,85.000000,,2013-06-24 01:53:00,
2013-06-23 19:01:00,65.0,16.0,-100.00,SSE,151,0.0,0.0,15,0.00,,,0.00,85.000000,,2013-06-24 02:01:00,
2013-06-23 19:11:00,65.0,16.0,-100.00,SSE,151,0.0,0.0,15,0.00,,,0.00,85.000000,,2013-06-24 02:11:00,
2013-06-23 19:33:00,62.0,17.0,-100.00,SW,228,0.0,0.0,17,0.00,,,0.00,82.000000,,2013-06-24 02:33:00,
2013-06-23 19:42:00,62.0,17.0,-100.00,SW,228,0.0,0.0,17,0.00,,,0.00,82.000000,,2013-06-24 02:42:00,
2013-06-23 19:53:00,62.0,17.0,-100.00,SW,228,0.0,0.0,17,0.00,,,0.00,82.000000,,2013-06-24 02:53:00,
2013-06-23 20:01:00,62.0,17.0,-100.00,SW,228,0.0,0.0,17,0.00,,,0.00,82.000000,,2013-06-24 03:01:00,
2013-06-23 20:11:00,62.0,17.0,-100.00,SW,228,0.0,0.0,17,0.00,,,0.00,82.000000,,2013-06-24 03:11:00,
2013-06-23 20:43:00,61.0,16.0,-100.00,SW,218,0.0,0.0,17,0.00,,,0.00,18.000000,,2013-06-24 03:43:00,
2013-06-23 20:53:00,61.0,16.0,-100.00,SW,218,0.0,0.0,17,0.00,,,0.00,18.000000,,2013-06-24 03:53:00,
2013-06-23 21:01:00,61.0,16.0,-100.00,SW,218,0.0,0.0,17,0.00,,,0.00,18.000000,,2013-06-24 04:01:00,
2013-06-23 21:11:00,61.0,16.0,-100.00,SW,218,0.0,0.0,17,0.00,,,0.00,18.000000,,2013-06-24 04:11:00,
2013-06-23 21:12:00,61.0,17.0,-100.00,South,171,0.0,0.0,18,0.00,,,0.00,0.000000,,2013-06-24 04:12:00,
2013-06-23 21:33:00,61.0,17.0,-100.00,South,171,0.0,0.0,18,0.00,,,0.00,0.000000,,2013-06-24 04:33:00,
2013-06-23 21:43:00,61.0,17.0,-100.00,South,171,0.0,0.0,18,0.00,,,0.00,0.000000,,2013-06-24 04:43:00,
2013-06-23 21:53:00,61.0,17.0,-100.00,South,171,0.0,0.0,18,0.00,,,0.00,0.000000,,2013-06-24 04:53:00,
2013-06-23 22:02:00,61.0,17.0,-100.00,South,171,0.0,0.0,18,0.00,,,0.00,0.000000,,2013-06-24 05:02:00,
2013-06-23 22:12:00,60.0,22.0,-100.00,South,181,0.0,0.0,23,0.00,,,0.00,0.000000,,2013-06-24 05:12:00,
2013-06-23 22:46:00,60.0,22.0,-100.00,South,181,0.0,0.0,23,0.00,,,0.00,0.000000,,2013-06-24 05:46:00,
2013-06-23 22:54:00,60.0,22.0,-100.00,South,181,0.0,0.0,23,0.00,,,0.00,0.000000,,2013-06-24 05:54:00,
2013-06-23 23:03:00,60.0,22.0,-100.00,South,181,0.0,0.0,23,0.00,,,0.00,0.000000,,2013-06-24 06:03:00,
2013-06-23 23:12:00,56.0,23.0,-100.00,West,267,0.0,0.0,28,0.00,,,0.00,0.000000,,2013-06-24 06:12:00,
2013-06-23 23:46:00,56.0,23.0,-100.00,West,267,0.0,0.0,28,0.00,,,0.00,0.000000,,2013-06-24 06:46:00,
2013-06-23 23:55:00,56.0,23.0,-100.00,West,267,0.0,0.0,28,0.00,,,0.00,0.000000,,2013-06-24 06:55:00,